Airfield :
LOGIN :

Register | Disclaimer

   EN    FR    IT 

 










Legend :    VFR   Marginal VFR   IFR   Intensive IFR   Very Intensive IFR
Visi :
Ceiling :
>= 8 km
>= 3000ft
5 to 8 km
1000 to 3000 ft
1500m to 5 km
500 to 1000 ft
800 to 1500m
200 to 500 ft
< 800m
< 200 ft
Symbols :   Thunderstorms  Fog  Heavy snow  Heavy precipitations  Wind > 20 kt
SIGMETs :     Misc.  Thunderstorms  Icing  Turbulence  Mountain Waves  Volcanic Ashes






- Airport Elevation : 39 ft
- IATA code : SUF


LICA - Lamezia Terme

CURRENT METAR :
  • 250850Z AUTO 24006KT 200V270 9999 FEW100/// 23/16 Q1022

EXPIRED METARs :
  • 250820Z AUTO 25006KT 220V310 9999 FEW100/// 23/16 Q1022
  • 250750Z AUTO 24004KT 210V300 9999 FEW100/// 22/16 Q1022
  • 250720Z AUTO VRB02KT 9999 BKN100/// 22/16 Q1023
  • 250650Z AUTO VRB02KT 9999 FEW100/// 22/16 Q1023
  • 250620Z AUTO VRB02KT 9999 FEW100/// 21/17 Q1022

TAF TAF LICA
Valid from the 25 at 06:00 until the 26 at 06:00 UTC


250500Z 2506/2606 VRB05KT CAVOK
BECMG 2508/2510 26012KT
BECMG 2517/2519 07006KT



MET'MAP, your aeronautical weather chart ! - Copyright ORBIFLY December 2007 - Disclaimer

ORBIFLY MET'MAP TEAM :

Programming & Development : Alexandra Zaïnal
Concept & original design : Baudouin d'Aumeries
Assistance for programming : Marc-Olivier Méhu
Technical & hardware support : Manuel Goepfert

Contact : metmap@orbifly.com




SOURCES & CREDITS :

   NOAA